sensor_id;sensor_type;location;lat;lon;timestamp;P1;durP1;ratioP1;P2;durP2;ratioP2
7031;SDS011;3557;48.880;8.328;2022-09-13T00:02:18;5.75;;;2.60;;
7031;SDS011;3557;48.880;8.328;2022-09-13T00:04:45;2.72;;;2.47;;
7031;SDS011;3557;48.880;8.328;2022-09-13T00:07:12;2.88;;;2.42;;
7031;SDS011;3557;48.880;8.328;2022-09-13T00:09:40;3.78;;;2.80;;
7031;SDS011;3557;48.880;8.328;2022-09-13T00:12:07;4.18;;;2.60;;
7031;SDS011;3557;48.880;8.328;2022-09-13T00:14:34;3.08;;;2.70;;
7031;SDS011;3557;48.880;8.328;2022-09-13T00:17:01;2.83;;;2.45;;
7031;SDS011;3557;48.880;8.328;2022-09-13T00:19:28;2.70;;;2.45;;
7031;SDS011;3557;48.880;8.328;2022-09-13T00:21:55;3.97;;;2.75;;
7031;SDS011;3557;48.880;8.328;2022-09-13T00:24:22;2.90;;;2.60;;
7031;SDS011;3557;48.880;8.328;2022-09-13T00:26:51;4.22;;;2.45;;
7031;SDS011;3557;48.880;8.328;2022-09-13T00:29:17;2.85;;;2.58;;
7031;SDS011;3557;48.880;8.328;2022-09-13T00:31:45;4.80;;;2.50;;
7031;SDS011;3557;48.880;8.328;2022-09-13T00:34:12;5.03;;;2.70;;
7031;SDS011;3557;48.880;8.328;2022-09-13T00:36:40;2.60;;;2.40;;
7031;SDS011;3557;48.880;8.328;2022-09-13T00:39:07;2.80;;;2.50;;
7031;SDS011;3557;48.880;8.328;2022-09-13T00:41:35;4.45;;;2.50;;
7031;SDS011;3557;48.880;8.328;2022-09-13T00:44:03;2.95;;;2.65;;
7031;SDS011;3557;48.880;8.328;2022-09-13T00:46:33;3.78;;;2.40;;
7031;SDS011;3557;48.880;8.328;2022-09-13T00:49:08;3.42;;;2.70;;
7031;SDS011;3557;48.880;8.328;2022-09-13T00:51:40;6.13;;;2.70;;
7031;SDS011;3557;48.880;8.328;2022-09-13T00:54:14;2.92;;;2.58;;
7031;SDS011;3557;48.880;8.328;2022-09-13T00:56:44;3.30;;;2.38;;
7031;SDS011;3557;48.880;8.328;2022-09-13T00:59:17;4.95;;;2.80;;
7031;SDS011;3557;48.880;8.328;2022-09-13T01:01:48;5.15;;;2.58;;
7031;SDS011;3557;48.880;8.328;2022-09-13T01:04:19;2.92;;;2.60;;
7031;SDS011;3557;48.880;8.328;2022-09-13T01:06:48;2.55;;;2.35;;
7031;SDS011;3557;48.880;8.328;2022-09-13T01:09:17;2.90;;;2.60;;
7031;SDS011;3557;48.880;8.328;2022-09-13T01:11:45;6.20;;;2.72;;
7031;SDS011;3557;48.880;8.328;2022-09-13T01:14:17;3.42;;;2.55;;
7031;SDS011;3557;48.880;8.328;2022-09-13T01:16:45;3.13;;;2.80;;
7031;SDS011;3557;48.880;8.328;2022-09-13T01:19:13;2.47;;;2.28;;
7031;SDS011;3557;48.880;8.328;2022-09-13T01:22:01;3.95;;;2.33;;
7031;SDS011;3557;48.880;8.328;2022-09-13T01:25:04;3.13;;;2.40;;
7031;SDS011;3557;48.880;8.328;2022-09-13T01:28:17;4.13;;;2.35;;
7031;SDS011;3557;48.880;8.328;2022-09-13T01:31:05;3.15;;;2.53;;
7031;SDS011;3557;48.880;8.328;2022-09-13T01:33:38;2.40;;;2.20;;
7031;SDS011;3557;48.880;8.328;2022-09-13T01:36:23;5.38;;;2.45;;
7031;SDS011;3557;48.880;8.328;2022-09-13T01:39:27;3.65;;;2.72;;
7031;SDS011;3557;48.880;8.328;2022-09-13T01:42:13;3.55;;;2.70;;
7031;SDS011;3557;48.880;8.328;2022-09-13T01:44:55;4.10;;;2.63;;
7031;SDS011;3557;48.880;8.328;2022-09-13T01:47:36;3.58;;;2.50;;
7031;SDS011;3557;48.880;8.328;2022-09-13T01:50:16;2.70;;;2.50;;
7031;SDS011;3557;48.880;8.328;2022-09-13T01:52:52;2.67;;;2.47;;
7031;SDS011;3557;48.880;8.328;2022-09-13T01:55:29;2.90;;;2.70;;
7031;SDS011;3557;48.880;8.328;2022-09-13T01:58:04;3.72;;;2.60;;
7031;SDS011;3557;48.880;8.328;2022-09-13T02:00:43;6.15;;;2.70;;
7031;SDS011;3557;48.880;8.328;2022-09-13T02:03:17;4.75;;;2.55;;
7031;SDS011;3557;48.880;8.328;2022-09-13T02:05:49;3.45;;;2.58;;
7031;SDS011;3557;48.880;8.328;2022-09-13T02:08:21;4.82;;;2.80;;
7031;SDS011;3557;48.880;8.328;2022-09-13T02:11:02;2.50;;;2.30;;
7031;SDS011;3557;48.880;8.328;2022-09-13T02:13:34;3.30;;;2.35;;
7031;SDS011;3557;48.880;8.328;2022-09-13T02:16:06;5.90;;;2.67;;
7031;SDS011;3557;48.880;8.328;2022-09-13T02:18:39;5.15;;;2.25;;
7031;SDS011;3557;48.880;8.328;2022-09-13T02:21:10;2.80;;;2.35;;
7031;SDS011;3557;48.880;8.328;2022-09-13T02:23:40;3.28;;;2.30;;
7031;SDS011;3557;48.880;8.328;2022-09-13T02:26:12;2.63;;;2.42;;
7031;SDS011;3557;48.880;8.328;2022-09-13T02:28:42;3.50;;;2.55;;
7031;SDS011;3557;48.880;8.328;2022-09-13T02:31:13;4.93;;;2.65;;
7031;SDS011;3557;48.880;8.328;2022-09-13T02:33:45;2.65;;;2.38;;
7031;SDS011;3557;48.880;8.328;2022-09-13T02:36:20;2.58;;;2.38;;
7031;SDS011;3557;48.880;8.328;2022-09-13T02:38:51;2.58;;;2.20;;
7031;SDS011;3557;48.880;8.328;2022-09-13T02:41:23;2.67;;;2.25;;
7031;SDS011;3557;48.880;8.328;2022-09-13T02:43:58;2.40;;;2.20;;
7031;SDS011;3557;48.880;8.328;2022-09-13T02:46:43;2.90;;;2.60;;
7031;SDS011;3557;48.880;8.328;2022-09-13T02:49:36;2.60;;;2.33;;
7031;SDS011;3557;48.880;8.328;2022-09-13T02:52:18;3.25;;;2.10;;
7031;SDS011;3557;48.880;8.328;2022-09-13T02:54:56;5.57;;;2.15;;
7031;SDS011;3557;48.880;8.328;2022-09-13T02:57:35;2.70;;;2.50;;
7031;SDS011;3557;48.880;8.328;2022-09-13T03:00:06;2.60;;;2.13;;
7031;SDS011;3557;48.880;8.328;2022-09-13T03:02:35;5.72;;;2.50;;
7031;SDS011;3557;48.880;8.328;2022-09-13T03:05:06;3.20;;;2.47;;
7031;SDS011;3557;48.880;8.328;2022-09-13T03:07:34;5.72;;;2.20;;
7031;SDS011;3557;48.880;8.328;2022-09-13T03:10:02;2.67;;;2.10;;
7031;SDS011;3557;48.880;8.328;2022-09-13T03:12:47;2.97;;;2.40;;
7031;SDS011;3557;48.880;8.328;2022-09-13T03:15:41;4.38;;;2.28;;
7031;SDS011;3557;48.880;8.328;2022-09-13T03:18:27;5.60;;;2.20;;
7031;SDS011;3557;48.880;8.328;2022-09-13T03:21:07;3.65;;;2.10;;
7031;SDS011;3557;48.880;8.328;2022-09-13T03:23:49;2.22;;;1.95;;
7031;SDS011;3557;48.880;8.328;2022-09-13T03:26:33;3.85;;;2.28;;
7031;SDS011;3557;48.880;8.328;2022-09-13T03:29:10;2.20;;;2.00;;
7031;SDS011;3557;48.880;8.328;2022-09-13T03:31:55;2.50;;;2.10;;
7031;SDS011;3557;48.880;8.328;2022-09-13T03:34:33;2.40;;;2.20;;
7031;SDS011;3557;48.880;8.328;2022-09-13T03:37:12;2.30;;;2.00;;
7031;SDS011;3557;48.880;8.328;2022-09-13T03:39:51;4.25;;;2.20;;
7031;SDS011;3557;48.880;8.328;2022-09-13T03:42:27;3.25;;;2.20;;
7031;SDS011;3557;48.880;8.328;2022-09-13T03:44:59;5.55;;;2.15;;
7031;SDS011;3557;48.880;8.328;2022-09-13T03:47:30;5.72;;;2.13;;
7031;SDS011;3557;48.880;8.328;2022-09-13T03:50:00;2.30;;;2.10;;
7031;SDS011;3557;48.880;8.328;2022-09-13T03:52:30;2.60;;;2.33;;
7031;SDS011;3557;48.880;8.328;2022-09-13T03:54:57;3.20;;;2.25;;
7031;SDS011;3557;48.880;8.328;2022-09-13T03:57:24;4.10;;;2.28;;
7031;SDS011;3557;48.880;8.328;2022-09-13T03:59:52;5.10;;;2.10;;
7031;SDS011;3557;48.880;8.328;2022-09-13T04:02:22;3.60;;;2.30;;
7031;SDS011;3557;48.880;8.328;2022-09-13T04:04:51;4.13;;;1.98;;
7031;SDS011;3557;48.880;8.328;2022-09-13T04:07:19;4.05;;;2.30;;
7031;SDS011;3557;48.880;8.328;2022-09-13T04:09:49;2.83;;;2.30;;
7031;SDS011;3557;48.880;8.328;2022-09-13T04:12:17;3.35;;;1.90;;
7031;SDS011;3557;48.880;8.328;2022-09-13T04:14:44;3.55;;;2.10;;
7031;SDS011;3557;48.880;8.328;2022-09-13T04:17:11;2.30;;;2.10;;
7031;SDS011;3557;48.880;8.328;2022-09-13T04:19:39;3.63;;;2.00;;
7031;SDS011;3557;48.880;8.328;2022-09-13T04:22:08;2.30;;;2.10;;
7031;SDS011;3557;48.880;8.328;2022-09-13T04:24:36;2.35;;;2.00;;
7031;SDS011;3557;48.880;8.328;2022-09-13T04:27:05;2.28;;;2.08;;
7031;SDS011;3557;48.880;8.328;2022-09-13T04:29:32;4.78;;;2.10;;
7031;SDS011;3557;48.880;8.328;2022-09-13T04:32:00;2.28;;;2.08;;
7031;SDS011;3557;48.880;8.328;2022-09-13T04:34:27;2.75;;;2.05;;
7031;SDS011;3557;48.880;8.328;2022-09-13T04:36:54;5.45;;;2.10;;
7031;SDS011;3557;48.880;8.328;2022-09-13T04:39:22;2.38;;;2.08;;
7031;SDS011;3557;48.880;8.328;2022-09-13T04:41:49;3.05;;;2.10;;
7031;SDS011;3557;48.880;8.328;2022-09-13T04:44:20;4.13;;;2.38;;
7031;SDS011;3557;48.880;8.328;2022-09-13T04:46:48;3.45;;;2.30;;
7031;SDS011;3557;48.880;8.328;2022-09-13T04:49:16;3.30;;;2.20;;
7031;SDS011;3557;48.880;8.328;2022-09-13T04:51:44;2.22;;;2.03;;
7031;SDS011;3557;48.880;8.328;2022-09-13T04:54:11;3.83;;;2.28;;
7031;SDS011;3557;48.880;8.328;2022-09-13T04:56:39;2.50;;;2.13;;
7031;SDS011;3557;48.880;8.328;2022-09-13T04:59:06;2.67;;;2.00;;
7031;SDS011;3557;48.880;8.328;2022-09-13T05:01:36;2.42;;;2.10;;
7031;SDS011;3557;48.880;8.328;2022-09-13T05:04:04;2.72;;;1.92;;
7031;SDS011;3557;48.880;8.328;2022-09-13T05:06:32;3.53;;;2.08;;
7031;SDS011;3557;48.880;8.328;2022-09-13T05:08:59;4.65;;;2.28;;
7031;SDS011;3557;48.880;8.328;2022-09-13T05:11:28;3.33;;;2.15;;
7031;SDS011;3557;48.880;8.328;2022-09-13T05:13:56;2.25;;;2.08;;
7031;SDS011;3557;48.880;8.328;2022-09-13T05:16:25;2.28;;;2.00;;
7031;SDS011;3557;48.880;8.328;2022-09-13T05:18:56;5.72;;;2.40;;
7031;SDS011;3557;48.880;8.328;2022-09-13T05:21:23;4.03;;;2.15;;
7031;SDS011;3557;48.880;8.328;2022-09-13T05:23:52;3.25;;;2.17;;
7031;SDS011;3557;48.880;8.328;2022-09-13T05:26:20;3.08;;;2.28;;
7031;SDS011;3557;48.880;8.328;2022-09-13T05:28:49;2.72;;;2.05;;
7031;SDS011;3557;48.880;8.328;2022-09-13T05:31:16;3.15;;;2.17;;
7031;SDS011;3557;48.880;8.328;2022-09-13T05:33:46;3.60;;;2.22;;
7031;SDS011;3557;48.880;8.328;2022-09-13T05:36:19;4.50;;;2.30;;
7031;SDS011;3557;48.880;8.328;2022-09-13T05:38:46;2.40;;;2.13;;
7031;SDS011;3557;48.880;8.328;2022-09-13T05:41:13;5.90;;;2.25;;
7031;SDS011;3557;48.880;8.328;2022-09-13T05:43:40;5.75;;;2.13;;
7031;SDS011;3557;48.880;8.328;2022-09-13T05:46:09;3.47;;;2.20;;
7031;SDS011;3557;48.880;8.328;2022-09-13T05:48:38;2.70;;;2.13;;
7031;SDS011;3557;48.880;8.328;2022-09-13T05:51:06;3.72;;;2.03;;
7031;SDS011;3557;48.880;8.328;2022-09-13T05:53:37;2.30;;;2.00;;
7031;SDS011;3557;48.880;8.328;2022-09-13T05:56:05;3.20;;;2.20;;
7031;SDS011;3557;48.880;8.328;2022-09-13T05:58:33;2.75;;;2.30;;
7031;SDS011;3557;48.880;8.328;2022-09-13T06:01:04;2.53;;;2.17;;
7031;SDS011;3557;48.880;8.328;2022-09-13T06:03:31;7.28;;;2.33;;
7031;SDS011;3557;48.880;8.328;2022-09-13T06:05:59;3.50;;;2.35;;
7031;SDS011;3557;48.880;8.328;2022-09-13T06:08:27;2.42;;;2.17;;
7031;SDS011;3557;48.880;8.328;2022-09-13T06:10:57;2.97;;;2.15;;
7031;SDS011;3557;48.880;8.328;2022-09-13T06:13:26;2.30;;;2.10;;
7031;SDS011;3557;48.880;8.328;2022-09-13T06:15:54;3.35;;;2.20;;
7031;SDS011;3557;48.880;8.328;2022-09-13T06:18:24;2.20;;;2.00;;
7031;SDS011;3557;48.880;8.328;2022-09-13T06:20:56;2.33;;;2.03;;
7031;SDS011;3557;48.880;8.328;2022-09-13T06:23:25;4.53;;;2.05;;
7031;SDS011;3557;48.880;8.328;2022-09-13T06:26:00;3.17;;;2.08;;
7031;SDS011;3557;48.880;8.328;2022-09-13T06:28:29;4.13;;;2.17;;
7031;SDS011;3557;48.880;8.328;2022-09-13T06:31:00;2.13;;;1.92;;
7031;SDS011;3557;48.880;8.328;2022-09-13T06:33:28;3.75;;;2.10;;
7031;SDS011;3557;48.880;8.328;2022-09-13T06:35:58;4.90;;;2.00;;
7031;SDS011;3557;48.880;8.328;2022-09-13T06:38:26;3.20;;;2.30;;
7031;SDS011;3557;48.880;8.328;2022-09-13T06:41:02;3.97;;;2.22;;
7031;SDS011;3557;48.880;8.328;2022-09-13T06:43:31;2.35;;;2.00;;
7031;SDS011;3557;48.880;8.328;2022-09-13T06:45:58;4.70;;;2.10;;
7031;SDS011;3557;48.880;8.328;2022-09-13T06:48:29;2.95;;;1.70;;
7031;SDS011;3557;48.880;8.328;2022-09-13T06:50:58;4.78;;;2.00;;
7031;SDS011;3557;48.880;8.328;2022-09-13T06:53:25;2.05;;;1.63;;
7031;SDS011;3557;48.880;8.328;2022-09-13T06:56:02;1.77;;;1.67;;
7031;SDS011;3557;48.880;8.328;2022-09-13T06:58:31;4.88;;;1.70;;
7031;SDS011;3557;48.880;8.328;2022-09-13T07:01:06;1.55;;;1.45;;
7031;SDS011;3557;48.880;8.328;2022-09-13T07:03:36;3.05;;;1.50;;
7031;SDS011;3557;48.880;8.328;2022-09-13T07:06:05;1.92;;;1.63;;
7031;SDS011;3557;48.880;8.328;2022-09-13T07:08:37;2.45;;;1.60;;
7031;SDS011;3557;48.880;8.328;2022-09-13T07:11:07;2.03;;;1.83;;
7031;SDS011;3557;48.880;8.328;2022-09-13T07:13:34;2.45;;;1.90;;
7031;SDS011;3557;48.880;8.328;2022-09-13T07:16:02;2.00;;;1.80;;
7031;SDS011;3557;48.880;8.328;2022-09-13T07:18:30;3.92;;;2.00;;
7031;SDS011;3557;48.880;8.328;2022-09-13T07:20:58;2.45;;;1.70;;
7031;SDS011;3557;48.880;8.328;2022-09-13T07:23:28;2.38;;;1.95;;
7031;SDS011;3557;48.880;8.328;2022-09-13T07:25:56;2.10;;;2.00;;
7031;SDS011;3557;48.880;8.328;2022-09-13T07:28:30;2.78;;;2.00;;
7031;SDS011;3557;48.880;8.328;2022-09-13T07:31:07;2.90;;;1.92;;
7031;SDS011;3557;48.880;8.328;2022-09-13T07:33:36;2.42;;;1.90;;
7031;SDS011;3557;48.880;8.328;2022-09-13T07:36:05;5.20;;;2.28;;
7031;SDS011;3557;48.880;8.328;2022-09-13T07:38:33;3.55;;;2.42;;
7031;SDS011;3557;48.880;8.328;2022-09-13T07:41:01;4.55;;;2.28;;
7031;SDS011;3557;48.880;8.328;2022-09-13T07:43:32;4.15;;;2.70;;
7031;SDS011;3557;48.880;8.328;2022-09-13T07:46:00;3.53;;;2.15;;
7031;SDS011;3557;48.880;8.328;2022-09-13T07:48:31;6.75;;;2.30;;
7031;SDS011;3557;48.880;8.328;2022-09-13T07:51:01;3.35;;;2.13;;
7031;SDS011;3557;48.880;8.328;2022-09-13T07:53:31;5.22;;;2.60;;
7031;SDS011;3557;48.880;8.328;2022-09-13T07:56:00;5.70;;;2.25;;
7031;SDS011;3557;48.880;8.328;2022-09-13T07:58:29;2.83;;;2.10;;
7031;SDS011;3557;48.880;8.328;2022-09-13T08:00:59;8.05;;;2.30;;
7031;SDS011;3557;48.880;8.328;2022-09-13T08:03:32;4.55;;;2.47;;
7031;SDS011;3557;48.880;8.328;2022-09-13T08:06:00;4.20;;;2.30;;
7031;SDS011;3557;48.880;8.328;2022-09-13T08:08:28;3.10;;;2.00;;
7031;SDS011;3557;48.880;8.328;2022-09-13T08:10:56;4.65;;;2.08;;
7031;SDS011;3557;48.880;8.328;2022-09-13T08:13:23;15.90;;;2.40;;
7031;SDS011;3557;48.880;8.328;2022-09-13T08:15:51;3.92;;;1.98;;
7031;SDS011;3557;48.880;8.328;2022-09-13T08:18:18;3.80;;;2.00;;
7031;SDS011;3557;48.880;8.328;2022-09-13T08:20:46;3.72;;;2.30;;
7031;SDS011;3557;48.880;8.328;2022-09-13T08:23:13;3.05;;;2.20;;
7031;SDS011;3557;48.880;8.328;2022-09-13T08:25:40;3.92;;;1.73;;
7031;SDS011;3557;48.880;8.328;2022-09-13T08:28:07;4.22;;;1.90;;
7031;SDS011;3557;48.880;8.328;2022-09-13T08:30:39;1.83;;;1.70;;
7031;SDS011;3557;48.880;8.328;2022-09-13T08:33:09;2.92;;;1.80;;
7031;SDS011;3557;48.880;8.328;2022-09-13T08:35:37;2.13;;;1.80;;
7031;SDS011;3557;48.880;8.328;2022-09-13T08:38:04;2.47;;;2.10;;
7031;SDS011;3557;48.880;8.328;2022-09-13T08:40:33;2.38;;;1.73;;
7031;SDS011;3557;48.880;8.328;2022-09-13T08:43:08;2.97;;;2.30;;
7031;SDS011;3557;48.880;8.328;2022-09-13T08:45:50;2.63;;;2.13;;
7031;SDS011;3557;48.880;8.328;2022-09-13T08:48:25;3.28;;;2.67;;
7031;SDS011;3557;48.880;8.328;2022-09-13T08:51:01;4.95;;;2.88;;
7031;SDS011;3557;48.880;8.328;2022-09-13T08:53:34;5.35;;;2.25;;
7031;SDS011;3557;48.880;8.328;2022-09-13T08:56:10;3.90;;;2.30;;
7031;SDS011;3557;48.880;8.328;2022-09-13T08:58:52;3.03;;;1.80;;
7031;SDS011;3557;48.880;8.328;2022-09-13T09:01:55;5.90;;;2.00;;
7031;SDS011;3557;48.880;8.328;2022-09-13T09:04:42;3.08;;;2.20;;
7031;SDS011;3557;48.880;8.328;2022-09-13T09:07:16;4.05;;;2.65;;
7031;SDS011;3557;48.880;8.328;2022-09-13T09:09:49;3.17;;;1.98;;
7031;SDS011;3557;48.880;8.328;2022-09-13T09:12:23;3.42;;;1.90;;
7031;SDS011;3557;48.880;8.328;2022-09-13T09:15:00;2.65;;;1.90;;
7031;SDS011;3557;48.880;8.328;2022-09-13T09:17:34;3.25;;;1.88;;
7031;SDS011;3557;48.880;8.328;2022-09-13T09:20:22;3.53;;;1.85;;
7031;SDS011;3557;48.880;8.328;2022-09-13T09:22:57;6.57;;;2.00;;
7031;SDS011;3557;48.880;8.328;2022-09-13T09:25:29;2.33;;;1.98;;
7031;SDS011;3557;48.880;8.328;2022-09-13T09:27:57;5.75;;;2.00;;
7031;SDS011;3557;48.880;8.328;2022-09-13T09:30:33;2.72;;;1.80;;
7031;SDS011;3557;48.880;8.328;2022-09-13T09:33:09;2.30;;;1.85;;
7031;SDS011;3557;48.880;8.328;2022-09-13T09:35:53;3.97;;;1.80;;
7031;SDS011;3557;48.880;8.328;2022-09-13T09:38:37;3.83;;;2.40;;
7031;SDS011;3557;48.880;8.328;2022-09-13T09:41:10;4.85;;;3.42;;
7031;SDS011;3557;48.880;8.328;2022-09-13T09:43:52;4.10;;;2.33;;
7031;SDS011;3557;48.880;8.328;2022-09-13T09:46:27;2.80;;;2.00;;
7031;SDS011;3557;48.880;8.328;2022-09-13T09:49:00;2.80;;;2.00;;
7031;SDS011;3557;48.880;8.328;2022-09-13T09:51:57;8.05;;;1.90;;
7031;SDS011;3557;48.880;8.328;2022-09-13T09:54:27;2.03;;;1.77;;
7031;SDS011;3557;48.880;8.328;2022-09-13T09:56:55;3.83;;;2.17;;
7031;SDS011;3557;48.880;8.328;2022-09-13T09:59:24;3.15;;;2.10;;
7031;SDS011;3557;48.880;8.328;2022-09-13T10:01:53;9.23;;;2.47;;
7031;SDS011;3557;48.880;8.328;2022-09-13T10:04:22;2.60;;;1.92;;
7031;SDS011;3557;48.880;8.328;2022-09-13T10:06:51;3.88;;;1.90;;
7031;SDS011;3557;48.880;8.328;2022-09-13T10:09:56;6.32;;;2.10;;
7031;SDS011;3557;48.880;8.328;2022-09-13T10:12:31;4.53;;;2.00;;
7031;SDS011;3557;48.880;8.328;2022-09-13T10:15:03;3.25;;;1.75;;
7031;SDS011;3557;48.880;8.328;2022-09-13T10:17:36;3.72;;;2.00;;
7031;SDS011;3557;48.880;8.328;2022-09-13T10:20:18;3.15;;;2.00;;
7031;SDS011;3557;48.880;8.328;2022-09-13T10:23:07;2.83;;;1.90;;
7031;SDS011;3557;48.880;8.328;2022-09-13T10:25:54;3.15;;;1.70;;
7031;SDS011;3557;48.880;8.328;2022-09-13T10:28:26;5.07;;;1.80;;
7031;SDS011;3557;48.880;8.328;2022-09-13T10:30:56;5.63;;;1.80;;
7031;SDS011;3557;48.880;8.328;2022-09-13T10:33:28;3.80;;;1.80;;
7031;SDS011;3557;48.880;8.328;2022-09-13T10:35:59;5.18;;;1.90;;
7031;SDS011;3557;48.880;8.328;2022-09-13T10:38:35;4.88;;;2.03;;
7031;SDS011;3557;48.880;8.328;2022-09-13T10:41:05;3.20;;;1.65;;
7031;SDS011;3557;48.880;8.328;2022-09-13T10:43:34;4.13;;;2.00;;
7031;SDS011;3557;48.880;8.328;2022-09-13T10:46:03;3.10;;;1.90;;
7031;SDS011;3557;48.880;8.328;2022-09-13T10:48:47;4.90;;;2.70;;
7031;SDS011;3557;48.880;8.328;2022-09-13T10:51:27;3.10;;;1.90;;
7031;SDS011;3557;48.880;8.328;2022-09-13T10:54:08;6.00;;;2.00;;
7031;SDS011;3557;48.880;8.328;2022-09-13T10:56:44;3.42;;;1.90;;
7031;SDS011;3557;48.880;8.328;2022-09-13T10:59:16;3.47;;;1.70;;
7031;SDS011;3557;48.880;8.328;2022-09-13T11:01:53;2.20;;;1.98;;
7031;SDS011;3557;48.880;8.328;2022-09-13T11:04:58;2.80;;;1.98;;
7031;SDS011;3557;48.880;8.328;2022-09-13T11:07:43;4.00;;;1.85;;
7031;SDS011;3557;48.880;8.328;2022-09-13T11:10:40;4.03;;;2.00;;
7031;SDS011;3557;48.880;8.328;2022-09-13T11:13:21;5.80;;;1.95;;
7031;SDS011;3557;48.880;8.328;2022-09-13T11:16:02;7.40;;;2.00;;
7031;SDS011;3557;48.880;8.328;2022-09-13T11:21:47;4.88;;;2.55;;
7031;SDS011;3557;48.880;8.328;2022-09-13T11:24:40;4.20;;;1.77;;
7031;SDS011;3557;48.880;8.328;2022-09-13T11:27:23;2.28;;;1.90;;
7031;SDS011;3557;48.880;8.328;2022-09-13T11:30:07;5.15;;;2.13;;
7031;SDS011;3557;48.880;8.328;2022-09-13T11:35:56;2.30;;;2.03;;
7031;SDS011;3557;48.880;8.328;2022-09-13T11:38:46;3.80;;;2.00;;
7031;SDS011;3557;48.880;8.328;2022-09-13T11:41:29;3.05;;;1.90;;
7031;SDS011;3557;48.880;8.328;2022-09-13T11:44:21;2.05;;;1.85;;
7031;SDS011;3557;48.880;8.328;2022-09-13T11:47:03;2.95;;;1.80;;
7031;SDS011;3557;48.880;8.328;2022-09-13T11:49:45;2.17;;;1.80;;
7031;SDS011;3557;48.880;8.328;2022-09-13T11:52:34;5.95;;;1.90;;
7031;SDS011;3557;48.880;8.328;2022-09-13T11:55:13;2.88;;;1.80;;
7031;SDS011;3557;48.880;8.328;2022-09-13T11:57:44;4.35;;;1.85;;
7031;SDS011;3557;48.880;8.328;2022-09-13T12:00:19;3.38;;;1.98;;
7031;SDS011;3557;48.880;8.328;2022-09-13T12:03:00;5.25;;;1.90;;
7031;SDS011;3557;48.880;8.328;2022-09-13T12:05:39;4.78;;;1.73;;
7031;SDS011;3557;48.880;8.328;2022-09-13T12:08:11;4.00;;;1.70;;
7031;SDS011;3557;48.880;8.328;2022-09-13T12:10:46;1.83;;;1.70;;
7031;SDS011;3557;48.880;8.328;2022-09-13T12:13:18;2.28;;;1.45;;
7031;SDS011;3557;48.880;8.328;2022-09-13T12:15:50;3.30;;;1.52;;
7031;SDS011;3557;48.880;8.328;2022-09-13T12:18:21;1.95;;;1.60;;
7031;SDS011;3557;48.880;8.328;2022-09-13T12:20:52;2.55;;;1.42;;
7031;SDS011;3557;48.880;8.328;2022-09-13T12:23:22;2.50;;;1.58;;
7031;SDS011;3557;48.880;8.328;2022-09-13T12:25:57;2.42;;;1.50;;
7031;SDS011;3557;48.880;8.328;2022-09-13T12:28:30;1.77;;;1.50;;
7031;SDS011;3557;48.880;8.328;2022-09-13T12:31:04;1.92;;;1.40;;
7031;SDS011;3557;48.880;8.328;2022-09-13T12:33:37;1.98;;;1.42;;
7031;SDS011;3557;48.880;8.328;2022-09-13T12:36:14;2.17;;;1.50;;
7031;SDS011;3557;48.880;8.328;2022-09-13T12:42:10;1.70;;;1.60;;
7031;SDS011;3557;48.880;8.328;2022-09-13T12:44:57;1.85;;;1.45;;
7031;SDS011;3557;48.880;8.328;2022-09-13T12:48:09;1.85;;;1.40;;
7031;SDS011;3557;48.880;8.328;2022-09-13T12:50:54;3.42;;;1.33;;
7031;SDS011;3557;48.880;8.328;2022-09-13T12:53:42;1.48;;;1.30;;
7031;SDS011;3557;48.880;8.328;2022-09-13T12:56:45;1.55;;;1.30;;
7031;SDS011;3557;48.880;8.328;2022-09-13T12:59:48;2.63;;;1.33;;
7031;SDS011;3557;48.880;8.328;2022-09-13T13:02:36;1.50;;;1.40;;
7031;SDS011;3557;48.880;8.328;2022-09-13T13:05:17;2.90;;;1.60;;
7031;SDS011;3557;48.880;8.328;2022-09-13T13:07:50;1.83;;;1.45;;
7031;SDS011;3557;48.880;8.328;2022-09-13T13:10:22;3.15;;;1.30;;
7031;SDS011;3557;48.880;8.328;2022-09-13T13:12:54;1.65;;;1.50;;
7031;SDS011;3557;48.880;8.328;2022-09-13T13:18:29;3.10;;;1.50;;
7031;SDS011;3557;48.880;8.328;2022-09-13T13:21:18;4.10;;;1.30;;
7031;SDS011;3557;48.880;8.328;2022-09-13T13:35:56;1.42;;;1.33;;
7031;SDS011;3557;48.880;8.328;2022-09-13T13:38:47;2.47;;;1.33;;
7031;SDS011;3557;48.880;8.328;2022-09-13T13:53:57;1.35;;;1.25;;
7031;SDS011;3557;48.880;8.328;2022-09-13T13:56:34;2.30;;;1.40;;
7031;SDS011;3557;48.880;8.328;2022-09-13T13:59:15;2.53;;;1.35;;
7031;SDS011;3557;48.880;8.328;2022-09-13T14:01:49;1.63;;;1.50;;
7031;SDS011;3557;48.880;8.328;2022-09-13T14:10:52;5.13;;;2.03;;
7031;SDS011;3557;48.880;8.328;2022-09-13T14:13:38;3.50;;;1.70;;
7031;SDS011;3557;48.880;8.328;2022-09-13T14:16:17;1.85;;;1.60;;
7031;SDS011;3557;48.880;8.328;2022-09-13T14:22:00;4.28;;;1.63;;
7031;SDS011;3557;48.880;8.328;2022-09-13T14:24:36;1.90;;;1.80;;
7031;SDS011;3557;48.880;8.328;2022-09-13T14:27:10;3.45;;;1.70;;
7031;SDS011;3557;48.880;8.328;2022-09-13T14:29:43;1.40;;;1.30;;
7031;SDS011;3557;48.880;8.328;2022-09-13T14:32:14;3.53;;;1.50;;
7031;SDS011;3557;48.880;8.328;2022-09-13T14:34:49;2.53;;;1.40;;
7031;SDS011;3557;48.880;8.328;2022-09-13T14:37:25;2.15;;;1.60;;
7031;SDS011;3557;48.880;8.328;2022-09-13T14:39:58;1.85;;;1.50;;
7031;SDS011;3557;48.880;8.328;2022-09-13T14:42:37;4.40;;;1.90;;
7031;SDS011;3557;48.880;8.328;2022-09-13T14:45:11;2.35;;;1.67;;
7031;SDS011;3557;48.880;8.328;2022-09-13T14:47:41;4.70;;;1.77;;
7031;SDS011;3557;48.880;8.328;2022-09-13T14:50:17;1.67;;;1.58;;
7031;SDS011;3557;48.880;8.328;2022-09-13T14:52:50;4.25;;;1.50;;
7031;SDS011;3557;48.880;8.328;2022-09-13T14:55:22;2.28;;;1.80;;
7031;SDS011;3557;48.880;8.328;2022-09-13T14:57:54;1.95;;;1.45;;
7031;SDS011;3557;48.880;8.328;2022-09-13T15:00:28;3.03;;;1.58;;
7031;SDS011;3557;48.880;8.328;2022-09-13T15:03:00;1.48;;;1.30;;
7031;SDS011;3557;48.880;8.328;2022-09-13T15:05:37;3.08;;;1.50;;
7031;SDS011;3557;48.880;8.328;2022-09-13T15:11:13;3.45;;;1.60;;
7031;SDS011;3557;48.880;8.328;2022-09-13T15:13:59;1.60;;;1.40;;
7031;SDS011;3557;48.880;8.328;2022-09-13T15:16:29;2.03;;;1.75;;
7031;SDS011;3557;48.880;8.328;2022-09-13T15:22:00;2.72;;;1.48;;
7031;SDS011;3557;48.880;8.328;2022-09-13T15:24:30;2.35;;;1.60;;
7031;SDS011;3557;48.880;8.328;2022-09-13T15:27:04;1.70;;;1.60;;
7031;SDS011;3557;48.880;8.328;2022-09-13T15:29:40;2.67;;;1.40;;
7031;SDS011;3557;48.880;8.328;2022-09-13T15:32:18;7.55;;;1.83;;
7031;SDS011;3557;48.880;8.328;2022-09-13T15:34:48;4.68;;;1.48;;
7031;SDS011;3557;48.880;8.328;2022-09-13T15:37:15;2.35;;;1.60;;
7031;SDS011;3557;48.880;8.328;2022-09-13T15:39:46;2.45;;;1.63;;
7031;SDS011;3557;48.880;8.328;2022-09-13T15:42:19;2.05;;;1.60;;
7031;SDS011;3557;48.880;8.328;2022-09-13T15:44:46;1.98;;;1.40;;
7031;SDS011;3557;48.880;8.328;2022-09-13T15:47:14;1.65;;;1.50;;
7031;SDS011;3557;48.880;8.328;2022-09-13T15:49:46;2.05;;;1.90;;
7031;SDS011;3557;48.880;8.328;2022-09-13T15:52:15;2.10;;;1.90;;
7031;SDS011;3557;48.880;8.328;2022-09-13T15:54:45;2.38;;;2.10;;
7031;SDS011;3557;48.880;8.328;2022-09-13T15:57:15;4.63;;;2.28;;
7031;SDS011;3557;48.880;8.328;2022-09-13T15:59:46;3.13;;;1.95;;
7031;SDS011;3557;48.880;8.328;2022-09-13T16:02:16;5.82;;;1.90;;
7031;SDS011;3557;48.880;8.328;2022-09-13T16:04:46;3.72;;;2.20;;
7031;SDS011;3557;48.880;8.328;2022-09-13T16:07:13;5.28;;;2.10;;
7031;SDS011;3557;48.880;8.328;2022-09-13T16:09:40;4.18;;;2.03;;
7031;SDS011;3557;48.880;8.328;2022-09-13T16:12:08;3.05;;;2.08;;
7031;SDS011;3557;48.880;8.328;2022-09-13T16:14:36;2.33;;;1.80;;
7031;SDS011;3557;48.880;8.328;2022-09-13T16:17:04;3.78;;;2.08;;
7031;SDS011;3557;48.880;8.328;2022-09-13T16:19:35;3.10;;;1.77;;
7031;SDS011;3557;48.880;8.328;2022-09-13T16:22:02;2.67;;;1.60;;
7031;SDS011;3557;48.880;8.328;2022-09-13T16:24:29;2.20;;;1.83;;
7031;SDS011;3557;48.880;8.328;2022-09-13T16:26:58;1.83;;;1.73;;
7031;SDS011;3557;48.880;8.328;2022-09-13T16:29:26;2.22;;;1.70;;
7031;SDS011;3557;48.880;8.328;2022-09-13T16:31:54;4.20;;;1.88;;
7031;SDS011;3557;48.880;8.328;2022-09-13T16:34:24;1.67;;;1.58;;
7031;SDS011;3557;48.880;8.328;2022-09-13T16:36:51;3.30;;;1.83;;
7031;SDS011;3557;48.880;8.328;2022-09-13T16:39:18;3.00;;;1.50;;
7031;SDS011;3557;48.880;8.328;2022-09-13T16:41:45;1.98;;;1.70;;
7031;SDS011;3557;48.880;8.328;2022-09-13T16:44:12;3.05;;;1.65;;
7031;SDS011;3557;48.880;8.328;2022-09-13T16:46:40;2.63;;;2.20;;
7031;SDS011;3557;48.880;8.328;2022-09-13T16:49:09;2.78;;;2.05;;